Time;durP1;ratioP1;P1;durP2;ratioP2;P2;SDS_P1;SDS_P2;PMS_P1;PMS_P2;Temp;Humidity;BMP_temperature;BMP_pressure;BME280_temperature;BME280_humidity;BME280_pressure;Samples;Min_cycle;Max_cycle;Signal;HPM_P1;HPM_P2
2023/01/28 00:00:26;;;;;;;0.40;0.40;;;0.90;99.90;;;;;;5004867;28;21224;-85
2023/01/28 00:02:51;;;;;;;0.50;0.50;;;0.90;99.90;;;;;;5003674;28;20687;-85
2023/01/28 00:05:17;;;;;;;0.43;0.43;;;0.80;99.90;;;;;;5002777;28;20610;-85
2023/01/28 00:07:42;;;;;;;0.47;0.47;;;0.80;99.90;;;;;;5003322;28;20201;-82
2023/01/28 00:10:09;;;;;;;0.50;0.50;;;0.90;99.90;;;;;;5010936;28;20192;-85
2023/01/28 00:12:34;;;;;;;0.50;0.50;;;0.90;99.90;;;;;;5013846;28;20230;-85
2023/01/28 00:15:00;;;;;;;0.30;0.30;;;0.90;99.90;;;;;;5029518;28;20539;-85
2023/01/28 00:17:25;;;;;;;0.40;0.40;;;0.80;99.90;;;;;;5027824;28;20868;-85
2023/01/28 00:19:51;;;;;;;0.33;0.33;;;0.80;99.90;;;;;;5026299;28;21411;-85
2023/01/28 00:22:16;;;;;;;0.40;0.40;;;0.70;99.90;;;;;;5026200;28;20207;-84
2023/01/28 00:24:42;;;;;;;0.40;0.40;;;0.70;99.90;;;;;;5023209;28;20590;-85
2023/01/28 00:27:08;;;;;;;0.40;0.40;;;0.70;99.90;;;;;;5026383;28;20180;-84
2023/01/28 00:29:33;;;;;;;0.47;0.47;;;0.60;99.90;;;;;;5026315;28;20187;-84
2023/01/28 00:31:59;;;;;;;0.40;0.40;;;0.60;99.90;;;;;;5027462;28;20550;-84
2023/01/28 00:34:24;;;;;;;0.43;0.43;;;0.60;99.90;;;;;;5026238;28;20198;-84
2023/01/28 00:36:59;;;;;;;0.40;0.40;;;0.60;99.90;;;;;;5026283;28;20184;-84
2023/01/28 00:39:25;;;;;;;0.50;0.50;;;0.60;99.90;;;;;;5024773;28;20228;-85
2023/01/28 00:41:52;;;;;;;0.40;0.40;;;0.70;99.90;;;;;;5027460;28;21276;-85
2023/01/28 00:44:18;;;;;;;0.50;0.50;;;0.70;99.90;;;;;;5027720;28;20950;-84
2023/01/28 00:46:44;;;;;;;0.33;0.33;;;0.70;99.90;;;;;;5027632;28;20449;-85
2023/01/28 00:49:10;;;;;;;0.40;0.40;;;0.70;99.90;;;;;;5024595;28;20476;-85
2023/01/28 00:51:35;;;;;;;0.33;0.33;;;0.70;99.90;;;;;;5025016;28;20719;-85
2023/01/28 00:54:01;;;;;;;0.40;0.40;;;0.70;99.90;;;;;;5027828;28;20199;-85
2023/01/28 00:56:27;;;;;;;0.50;0.50;;;0.70;99.90;;;;;;5026783;28;20196;-85
2023/01/28 00:58:53;;;;;;;0.40;0.40;;;0.70;99.90;;;;;;5024116;28;20236;-84
2023/01/28 01:01:24;;;;;;;0.40;0.40;;;0.70;99.90;;;;;;5022011;28;20329;-85
2023/01/28 01:04:11;;;;;;;0.40;0.40;;;0.60;99.90;;;;;;5026973;28;20493;-84
2023/01/28 01:06:38;;;;;;;0.40;0.40;;;0.60;99.90;;;;;;5025451;28;20446;-84
2023/01/28 01:09:06;;;;;;;0.40;0.40;;;0.50;99.90;;;;;;5030890;28;20449;-86
2023/01/28 01:11:32;;;;;;;0.40;0.40;;;0.60;99.90;;;;;;5028885;28;20446;-85
2023/01/28 01:13:59;;;;;;;0.50;0.50;;;0.60;99.90;;;;;;5023064;28;20864;-85
2023/01/28 01:16:27;;;;;;;0.50;0.50;;;0.60;99.90;;;;;;5025530;28;20195;-85
2023/01/28 01:18:53;;;;;;;0.30;0.30;;;0.60;99.90;;;;;;5024478;28;20455;-85
2023/01/28 01:21:21;;;;;;;0.40;0.40;;;0.50;99.90;;;;;;5029175;28;20453;-85
2023/01/28 01:23:47;;;;;;;0.50;0.50;;;0.50;99.90;;;;;;5025304;28;20280;-85
2023/01/28 01:26:13;;;;;;;0.40;0.40;;;0.50;99.90;;;;;;5020599;28;20996;-85
2023/01/28 01:28:39;;;;;;;0.50;0.50;;;0.40;99.90;;;;;;5021747;28;20448;-84
2023/01/28 01:31:08;;;;;;;0.40;0.40;;;0.40;99.90;;;;;;5026924;28;20434;-85
2023/01/28 01:33:34;;;;;;;0.43;0.43;;;0.50;99.90;;;;;;5022066;28;20479;-85
2023/01/28 01:36:00;;;;;;;0.50;0.50;;;0.50;99.90;;;;;;5021383;28;20442;-85
2023/01/28 01:38:26;;;;;;;0.40;0.40;;;0.50;99.90;;;;;;5027586;28;21023;-84
2023/01/28 01:40:54;;;;;;;0.43;0.43;;;0.40;99.90;;;;;;5023736;28;20199;-85
2023/01/28 01:43:21;;;;;;;0.50;0.50;;;0.50;99.90;;;;;;5026409;28;20493;-85
2023/01/28 01:45:52;;;;;;;0.40;0.40;;;0.20;99.90;;;;;;5028206;28;20629;-84
2023/01/28 01:48:22;;;;;;;0.43;0.43;;;0.10;99.90;;;;;;5027380;28;20454;-84
2023/01/28 01:50:55;;;;;;;0.50;0.50;;;0.10;99.90;;;;;;5026670;28;20465;-85
2023/01/28 01:53:22;;;;;;;0.50;0.50;;;0.00;99.90;;;;;;5017470;28;20463;-84
2023/01/28 01:55:51;;;;;;;0.50;0.50;;;0.00;99.90;;;;;;5026690;28;20450;-85
2023/01/28 01:58:21;;;;;;;0.40;0.40;;;0.10;99.90;;;;;;5025734;28;20465;-84
2023/01/28 02:00:46;;;;;;;0.50;0.50;;;0.10;99.90;;;;;;5022324;28;20457;-84
2023/01/28 02:03:15;;;;;;;0.40;0.40;;;-0.10;99.90;;;;;;5026630;28;20490;-85
2023/01/28 02:05:40;;;;;;;0.40;0.40;;;-0.10;99.90;;;;;;5025459;28;21987;-85
2023/01/28 02:08:21;;;;;;;0.43;0.43;;;-0.30;99.90;;;;;;5030338;28;20434;-85
2023/01/28 02:11:01;;;;;;;0.40;0.40;;;-0.30;99.90;;;;;;5027979;28;20192;-85
2023/01/28 02:13:31;;;;;;;0.60;0.60;;;-0.40;99.90;;;;;;5025887;28;20572;-85
2023/01/28 02:15:59;;;;;;;0.40;0.40;;;-0.50;99.90;;;;;;5027452;28;20438;-85
2023/01/28 02:18:25;;;;;;;0.50;0.50;;;-0.60;99.90;;;;;;5026627;28;20465;-85
2023/01/28 02:21:11;;;;;;;0.50;0.50;;;-0.60;99.90;;;;;;5025174;28;20813;-85
2023/01/28 02:23:49;;;;;;;0.43;0.43;;;-0.60;99.90;;;;;;5024901;28;21090;-85
2023/01/28 02:26:43;;;;;;;0.50;0.50;;;-0.60;99.90;;;;;;5024692;28;20442;-86
2023/01/28 02:29:35;;;;;;;0.60;0.60;;;-0.70;99.90;;;;;;5019534;28;20450;-85
2023/01/28 02:32:32;;;;;;;0.40;0.40;;;-0.70;99.90;;;;;;5022065;28;20462;-85
2023/01/28 02:35:09;;;;;;;0.47;0.47;;;-0.60;99.90;;;;;;5015038;28;20449;-85
2023/01/28 02:37:47;;;;;;;0.60;0.60;;;-0.60;99.90;;;;;;5022804;28;20468;-85
2023/01/28 02:40:28;;;;;;;0.50;0.50;;;-0.60;99.90;;;;;;5024600;28;20438;-85
2023/01/28 02:42:54;;;;;;;0.50;0.50;;;-0.60;99.90;;;;;;5018606;28;20986;-86
2023/01/28 02:45:21;;;;;;;0.60;0.60;;;-0.80;99.90;;;;;;5021317;28;20976;-85
2023/01/28 02:47:59;;;;;;;0.50;0.50;;;-0.90;99.90;;;;;;5031740;28;20462;-84
2023/01/28 02:50:38;;;;;;;0.60;0.60;;;-0.90;99.90;;;;;;5031537;28;20456;-86
2023/01/28 02:53:45;;;;;;;0.43;0.43;;;-0.90;99.90;;;;;;5029545;28;20976;-85
2023/01/28 02:56:28;;;;;;;0.40;0.40;;;-1.10;99.90;;;;;;5027305;28;20450;-85
2023/01/28 02:59:30;;;;;;;0.60;0.60;;;-1.10;99.90;;;;;;5024786;28;20510;-85
2023/01/28 03:02:24;;;;;;;0.50;0.50;;;-1.10;99.90;;;;;;5024046;28;20441;-85
2023/01/28 03:05:06;;;;;;;0.60;0.60;;;-0.90;99.90;;;;;;5028701;28;20457;-84
2023/01/28 03:07:35;;;;;;;0.50;0.50;;;-1.00;99.90;;;;;;5029005;28;20464;-84
2023/01/28 03:10:05;;;;;;;0.43;0.43;;;-1.00;99.90;;;;;;5028552;28;20494;-84
2023/01/28 03:38:53;;;;;;;0.50;0.50;;;-1.40;99.90;;;;;;5021581;28;20544;-84
2023/01/28 03:41:24;;;;;;;0.40;0.40;;;-1.30;99.90;;;;;;5027326;28;20548;-85
2023/01/28 03:43:50;;;;;;;0.50;0.50;;;-1.20;99.90;;;;;;5023316;28;20325;-84
2023/01/28 03:46:17;;;;;;;0.60;0.60;;;-1.20;99.90;;;;;;5018266;28;20434;-85
2023/01/28 03:48:45;;;;;;;0.50;0.50;;;-1.30;99.90;;;;;;5027678;28;20509;-84
2023/01/28 03:51:19;;;;;;;0.60;0.60;;;-1.20;99.90;;;;;;5028593;28;20458;-84
2023/01/28 03:53:44;;;;;;;0.50;0.50;;;-1.30;99.90;;;;;;5041761;28;20889;-84
2023/01/28 03:56:17;;;;;;;0.60;0.60;;;-1.30;99.90;;;;;;5029330;28;20536;-85
2023/01/28 03:58:51;;;;;;;0.57;0.57;;;-1.30;99.90;;;;;;5026377;28;20246;-85
2023/01/28 04:01:17;;;;;;;0.40;0.40;;;-1.30;99.90;;;;;;5027928;28;20834;-85
2023/01/28 04:03:43;;;;;;;0.50;0.50;;;-1.30;99.90;;;;;;5030785;28;20580;-85
2023/01/28 04:06:09;;;;;;;0.50;0.50;;;-1.40;99.90;;;;;;5025525;28;20446;-85
2023/01/28 04:08:34;;;;;;;0.47;0.47;;;-1.40;99.90;;;;;;5026794;28;20281;-85
2023/01/28 04:11:14;;;;;;;0.60;0.60;;;-1.60;99.90;;;;;;5030433;28;20269;-85
2023/01/28 04:13:41;;;;;;;0.53;0.53;;;-1.50;99.90;;;;;;5026621;28;20576;-85
2023/01/28 04:16:07;;;;;;;0.50;0.50;;;-1.40;99.90;;;;;;5025775;28;20450;-85
2023/01/28 04:18:33;;;;;;;0.70;0.70;;;-1.30;99.90;;;;;;5023667;28;20435;-85
2023/01/28 04:20:58;;;;;;;0.60;0.60;;;-1.20;99.90;;;;;;5030034;28;20515;-85
2023/01/28 04:23:24;;;;;;;0.50;0.50;;;-1.20;99.90;;;;;;5030521;28;20563;-85
2023/01/28 04:25:50;;;;;;;0.53;0.53;;;-1.20;99.90;;;;;;5023885;28;20335;-85
2023/01/28 04:28:15;;;;;;;0.60;0.60;;;-1.30;99.90;;;;;;5024879;28;20197;-85
2023/01/28 04:30:41;;;;;;;0.50;0.50;;;-1.30;99.90;;;;;;5018479;28;20442;-85
2023/01/28 04:33:06;;;;;;;0.60;0.60;;;-1.40;99.90;;;;;;5030911;28;20191;-85
2023/01/28 04:35:32;;;;;;;0.57;0.57;;;-1.30;99.90;;;;;;5023447;28;20220;-85
2023/01/28 04:37:57;;;;;;;0.40;0.40;;;-1.40;99.90;;;;;;5030703;28;20199;-85
2023/01/28 04:40:23;;;;;;;0.60;0.60;;;-1.40;99.90;;;;;;5026639;28;20192;-85
2023/01/28 04:42:53;;;;;;;0.50;0.50;;;-1.50;99.90;;;;;;5029733;28;20245;-85
2023/01/28 04:45:19;;;;;;;0.50;0.50;;;-1.50;99.90;;;;;;5028285;28;20285;-85
2023/01/28 04:47:45;;;;;;;0.47;0.47;;;-1.50;99.90;;;;;;5030006;28;21064;-85
2023/01/28 04:50:11;;;;;;;0.70;0.70;;;-1.60;99.90;;;;;;5023570;28;20492;-86
2023/01/28 04:52:44;;;;;;;0.60;0.60;;;-1.50;99.90;;;;;;5027628;28;20253;-86
2023/01/28 04:55:10;;;;;;;0.60;0.60;;;-1.60;99.90;;;;;;5029352;28;20195;-85
2023/01/28 04:57:38;;;;;;;0.60;0.60;;;-1.60;99.90;;;;;;5025490;28;20462;-85
2023/01/28 05:00:14;;;;;;;0.40;0.40;;;-1.60;99.90;;;;;;5017463;28;20457;-85
2023/01/28 05:02:40;;;;;;;0.50;0.50;;;-1.60;99.90;;;;;;5025048;28;20918;-85
2023/01/28 05:05:07;;;;;;;0.40;0.40;;;-1.50;99.90;;;;;;5034354;28;20442;-85
2023/01/28 05:07:34;;;;;;;0.50;0.50;;;-1.30;99.90;;;;;;5022212;28;20261;-85
2023/01/28 05:10:00;;;;;;;0.53;0.53;;;-1.30;99.90;;;;;;5019883;28;20454;-85
2023/01/28 05:12:25;;;;;;;0.40;0.40;;;-1.40;99.90;;;;;;5021836;28;20482;-86
2023/01/28 05:14:57;;;;;;;0.60;0.60;;;-1.50;99.90;;;;;;5026630;28;20270;-86
2023/01/28 05:17:22;;;;;;;0.50;0.50;;;-1.40;99.90;;;;;;5023397;28;20553;-85
2023/01/28 05:19:48;;;;;;;0.47;0.47;;;-1.50;99.90;;;;;;5027984;28;20442;-86
2023/01/28 05:22:13;;;;;;;0.50;0.50;;;-1.40;99.90;;;;;;5023072;28;20665;-86
2023/01/28 05:24:41;;;;;;;0.50;0.50;;;-1.40;99.90;;;;;;5023709;28;20245;-86
2023/01/28 05:27:16;;;;;;;0.57;0.57;;;-1.40;99.90;;;;;;5042073;28;20195;-86
2023/01/28 05:29:42;;;;;;;0.50;0.50;;;-1.40;99.90;;;;;;5026265;28;20453;-86
2023/01/28 05:32:07;;;;;;;0.50;0.50;;;-1.60;99.90;;;;;;5020861;28;20452;-86
2023/01/28 05:34:33;;;;;;;0.60;0.60;;;-1.60;99.90;;;;;;5025339;28;20267;-86
2023/01/28 05:37:01;;;;;;;0.40;0.40;;;-1.50;99.90;;;;;;5029321;28;20294;-85
2023/01/28 05:39:34;;;;;;;0.60;0.60;;;-1.40;99.90;;;;;;5027180;28;20588;-86
2023/01/28 05:42:09;;;;;;;0.43;0.43;;;-1.40;99.90;;;;;;5025809;28;20477;-86
2023/01/28 05:44:36;;;;;;;0.50;0.50;;;-1.50;99.90;;;;;;5028999;28;20461;-87
2023/01/28 05:47:02;;;;;;;0.60;0.60;;;-1.70;99.90;;;;;;5027841;28;20458;-86
2023/01/28 05:49:28;;;;;;;0.57;0.57;;;-1.80;99.90;;;;;;5025097;28;20450;-86
2023/01/28 05:51:53;;;;;;;0.50;0.50;;;-1.70;99.90;;;;;;5027090;28;20851;-86
2023/01/28 05:54:19;;;;;;;0.80;0.80;;;-1.70;99.90;;;;;;5022962;28;20194;-86
2023/01/28 05:56:46;;;;;;;0.50;0.50;;;-1.80;99.90;;;;;;5024564;28;20654;-86
2023/01/28 05:59:12;;;;;;;0.47;0.47;;;-1.90;99.90;;;;;;5024798;28;20187;-87
2023/01/28 06:01:46;;;;;;;0.60;0.60;;;-1.70;99.90;;;;;;5017495;28;20457;-86
2023/01/28 06:04:12;;;;;;;0.50;0.50;;;-1.60;99.90;;;;;;5017997;28;20226;-87
2023/01/28 06:06:46;;;;;;;0.67;0.67;;;-1.60;99.90;;;;;;5018957;28;20438;-86
2023/01/28 06:09:12;;;;;;;0.50;0.50;;;-1.70;99.90;;;;;;5024906;28;20680;-87
2023/01/28 06:11:50;;;;;;;0.57;0.57;;;-1.60;99.90;;;;;;5024111;28;20423;-87
2023/01/28 06:14:16;;;;;;;0.50;0.50;;;-1.50;99.90;;;;;;5023185;28;20195;-87
2023/01/28 06:16:42;;;;;;;0.67;0.67;;;-1.50;99.90;;;;;;5019469;28;20454;-88
2023/01/28 06:19:07;;;;;;;0.50;0.50;;;-1.50;99.90;;;;;;5024784;28;20880;-87
2023/01/28 06:21:33;;;;;;;0.50;0.50;;;-1.50;99.90;;;;;;5024514;28;20194;-88
2023/01/28 06:23:58;;;;;;;0.60;0.60;;;-1.70;99.90;;;;;;5028044;28;20353;-88
2023/01/28 06:26:24;;;;;;;0.50;0.50;;;-1.70;99.90;;;;;;5023109;28;20274;-88
2023/01/28 06:28:49;;;;;;;0.63;0.63;;;-1.80;99.90;;;;;;5027692;28;20183;-88
2023/01/28 06:31:15;;;;;;;0.60;0.60;;;-1.90;99.90;;;;;;5022853;28;20175;-88
2023/01/28 06:33:40;;;;;;;0.60;0.60;;;-1.70;99.90;;;;;;5020616;28;20927;-83
2023/01/28 06:36:06;;;;;;;0.60;0.60;;;-1.60;99.90;;;;;;5023161;28;20222;-83
2023/01/28 06:38:38;;;;;;;0.60;0.60;;;-1.50;99.90;;;;;;5019891;28;20658;-83
2023/01/28 06:41:04;;;;;;;0.60;0.60;;;-1.50;99.90;;;;;;5026487;28;20889;-85
2023/01/28 06:43:31;;;;;;;0.70;0.70;;;-1.40;99.90;;;;;;5023864;28;20492;-84
2023/01/28 06:45:57;;;;;;;0.53;0.53;;;-1.40;99.90;;;;;;5023909;28;20183;-84
2023/01/28 06:48:30;;;;;;;0.43;0.43;;;-1.40;99.90;;;;;;5028385;28;20442;-84
2023/01/28 06:50:58;;;;;;;0.60;0.60;;;-1.30;99.90;;;;;;5026401;28;20438;-84
2023/01/28 06:53:23;;;;;;;0.60;0.60;;;-1.30;99.90;;;;;;5027786;28;20535;-84
2023/01/28 06:55:49;;;;;;;0.60;0.60;;;-1.30;99.90;;;;;;5023159;28;20538;-85
2023/01/28 06:58:15;;;;;;;0.80;0.80;;;-1.30;99.90;;;;;;5026312;28;20191;-84
2023/01/28 07:00:40;;;;;;;0.60;0.60;;;-1.40;99.90;;;;;;5022861;28;20278;-84
2023/01/28 07:03:06;;;;;;;0.70;0.70;;;-1.30;99.90;;;;;;5026132;28;20223;-84
2023/01/28 07:05:32;;;;;;;0.50;0.50;;;-1.30;99.90;;;;;;5021032;28;20188;-84
2023/01/28 07:07:57;;;;;;;0.50;0.50;;;-1.30;99.90;;;;;;5024391;28;20188;-84
2023/01/28 07:10:23;;;;;;;0.50;0.50;;;-1.30;99.90;;;;;;5025730;28;20176;-84
2023/01/28 07:12:48;;;;;;;0.50;0.50;;;-1.30;99.90;;;;;;5023375;28;20750;-84
2023/01/28 07:15:14;;;;;;;0.60;0.60;;;-1.30;99.90;;;;;;5026707;28;20188;-85
2023/01/28 07:17:41;;;;;;;0.50;0.50;;;-1.20;99.90;;;;;;5028225;28;20283;-85
2023/01/28 07:20:10;;;;;;;0.60;0.60;;;-1.10;99.90;;;;;;5028694;28;20236;-84
2023/01/28 07:22:38;;;;;;;0.60;0.60;;;-1.10;99.90;;;;;;5020182;28;20754;-84
2023/01/28 07:25:04;;;;;;;0.63;0.63;;;-1.10;99.90;;;;;;5023322;28;20467;-84
2023/01/28 07:27:30;;;;;;;0.50;0.50;;;-1.00;99.90;;;;;;5019896;28;20445;-85
2023/01/28 07:29:56;;;;;;;0.50;0.50;;;-1.00;99.90;;;;;;5024159;28;20467;-85
2023/01/28 07:32:26;;;;;;;0.50;0.50;;;-1.00;99.90;;;;;;5026404;28;20180;-85
2023/01/28 07:34:52;;;;;;;0.50;0.50;;;-1.00;99.90;;;;;;5028679;28;20191;-85
2023/01/28 07:37:18;;;;;;;0.70;0.70;;;-0.90;99.90;;;;;;5025371;28;20781;-85
2023/01/28 07:39:51;;;;;;;0.50;0.50;;;-0.90;99.90;;;;;;5026558;28;20453;-84
2023/01/28 07:42:17;;;;;;;0.60;0.60;;;-0.90;99.90;;;;;;5024122;28;20245;-84
2023/01/28 07:44:42;;;;;;;0.50;0.50;;;-0.90;99.90;;;;;;5029908;28;20462;-84
2023/01/28 07:47:09;;;;;;;0.70;0.70;;;-0.80;99.90;;;;;;5028707;28;20445;-85
2023/01/28 07:49:34;;;;;;;0.60;0.60;;;-0.90;99.90;;;;;;5021314;28;20230;-84
2023/01/28 07:52:00;;;;;;;0.60;0.60;;;-0.80;99.90;;;;;;5029622;28;20473;-85
2023/01/28 07:54:25;;;;;;;0.60;0.60;;;-0.70;99.90;;;;;;5022570;28;21123;-83
2023/01/28 07:56:51;;;;;;;0.60;0.60;;;-0.70;99.90;;;;;;5025064;28;20199;-83
2023/01/28 07:59:17;;;;;;;0.60;0.60;;;-0.60;99.90;;;;;;5028861;28;20263;-83
2023/01/28 08:01:43;;;;;;;0.40;0.40;;;-0.60;99.90;;;;;;5023536;28;20202;-83
2023/01/28 08:04:08;;;;;;;0.60;0.60;;;-0.60;99.90;;;;;;5029402;28;20493;-83
2023/01/28 08:06:36;;;;;;;0.50;0.50;;;-0.60;99.90;;;;;;5029823;28;20215;-83
2023/01/28 08:09:04;;;;;;;0.60;0.60;;;-0.50;99.90;;;;;;5030048;28;20214;-83
2023/01/28 08:11:31;;;;;;;0.60;0.60;;;-0.40;99.90;;;;;;5018687;28;20446;-83
2023/01/28 08:13:56;;;;;;;0.60;0.60;;;-0.40;99.90;;;;;;5030239;28;20485;-84
2023/01/28 08:16:22;;;;;;;0.50;0.50;;;-0.30;99.90;;;;;;5026097;28;20469;-83
2023/01/28 08:18:47;;;;;;;0.37;0.37;;;-0.20;99.90;;;;;;5031759;28;20528;-84
2023/01/28 08:21:13;;;;;;;0.50;0.50;;;-0.10;99.90;;;;;;5029108;28;20275;-84
2023/01/28 08:23:38;;;;;;;0.50;0.50;;;-0.10;99.90;;;;;;5021396;28;20227;-83
2023/01/28 08:26:04;;;;;;;0.50;0.50;;;0.00;99.90;;;;;;5024081;28;20191;-86
2023/01/28 08:28:29;;;;;;;0.40;0.40;;;0.10;99.90;;;;;;5030313;28;20187;-86
2023/01/28 08:30:59;;;;;;;0.40;0.40;;;0.10;99.90;;;;;;5026690;28;20184;-85
2023/01/28 08:33:25;;;;;;;0.43;0.43;;;0.20;99.90;;;;;;5030159;28;20550;-84
2023/01/28 08:35:50;;;;;;;0.40;0.40;;;0.20;99.90;;;;;;5019011;28;20536;-84
2023/01/28 08:38:16;;;;;;;0.50;0.50;;;0.20;99.90;;;;;;5021320;28;20220;-84
2023/01/28 08:40:42;;;;;;;0.60;0.60;;;0.20;99.90;;;;;;5024407;28;20183;-86
2023/01/28 08:43:08;;;;;;;0.50;0.50;;;0.30;99.90;;;;;;5021709;28;20921;-87
2023/01/28 08:45:33;;;;;;;0.50;0.50;;;0.30;99.90;;;;;;5020013;28;20230;-86
2023/01/28 08:48:01;;;;;;;0.50;0.50;;;0.20;99.90;;;;;;5018970;28;20450;-89
2023/01/28 08:50:31;;;;;;;0.50;0.50;;;0.30;99.90;;;;;;5028850;28;20230;-87
2023/01/28 08:52:59;;;;;;;0.47;0.47;;;0.40;99.90;;;;;;5028502;28;20873;-89
2023/01/28 08:55:26;;;;;;;0.50;0.50;;;0.30;99.90;;;;;;5026598;28;20430;-92
2023/01/28 08:57:52;;;;;;;0.40;0.40;;;0.40;99.90;;;;;;5027056;28;20470;-91
2023/01/28 09:00:18;;;;;;;0.57;0.57;;;0.40;99.90;;;;;;5030392;28;20515;-90
2023/01/28 09:02:43;;;;;;;0.60;0.60;;;0.50;99.90;;;;;;5030469;28;20470;-91
2023/01/28 09:05:09;;;;;;;0.50;0.50;;;0.60;99.90;;;;;;5029715;28;20794;-89
2023/01/28 09:07:35;;;;;;;0.40;0.40;;;0.60;99.90;;;;;;5030274;28;20190;-91
2023/01/28 09:10:01;;;;;;;0.50;0.50;;;0.70;99.90;;;;;;5033331;28;20434;-84
2023/01/28 09:12:27;;;;;;;0.40;0.40;;;0.70;99.90;;;;;;5028856;28;20469;-87
2023/01/28 09:14:52;;;;;;;0.40;0.40;;;0.70;99.90;;;;;;5028586;28;20257;-86
2023/01/28 09:17:19;;;;;;;0.40;0.40;;;0.60;99.90;;;;;;5042877;28;20253;-86
2023/01/28 09:19:44;;;;;;;0.60;0.60;;;0.50;99.90;;;;;;5027442;28;20195;-87
2023/01/28 09:22:10;;;;;;;0.53;0.53;;;0.50;99.90;;;;;;5021026;28;20446;-89
2023/01/28 09:24:36;;;;;;;0.50;0.50;;;0.40;99.90;;;;;;5030290;28;20298;-90
2023/01/28 09:27:01;;;;;;;0.50;0.50;;;0.50;99.90;;;;;;5027735;28;20192;-89
2023/01/28 09:29:27;;;;;;;0.40;0.40;;;0.40;99.90;;;;;;5012657;28;20200;-89
2023/01/28 09:31:52;;;;;;;0.50;0.50;;;0.40;99.90;;;;;;5014185;28;20189;-88
2023/01/28 09:34:18;;;;;;;0.47;0.47;;;0.50;99.90;;;;;;5024505;28;20191;-88
2023/01/28 09:36:43;;;;;;;0.50;0.50;;;0.50;99.90;;;;;;5029249;28;20191;-88
2023/01/28 09:39:09;;;;;;;0.50;0.50;;;0.50;99.90;;;;;;5029882;28;20670;-87
2023/01/28 09:42:10;;;;;;;0.50;0.50;;;0.60;99.90;;;;;;5025899;28;20196;-90
2023/01/28 09:44:58;;;;;;;0.50;0.50;;;0.60;99.90;;;;;;5029080;28;20199;-89
2023/01/28 09:47:42;;;;;;;0.40;0.40;;;0.60;99.90;;;;;;5020314;28;20438;-89
2023/01/28 09:50:17;;;;;;;0.50;0.50;;;0.60;99.90;;;;;;5020945;28;20774;-88
2023/01/28 09:52:43;;;;;;;0.40;0.40;;;0.60;99.90;;;;;;5025841;28;20537;-85
2023/01/28 09:55:39;;;;;;;0.33;0.33;;;0.70;99.90;;;;;;5024528;28;20446;-86
2023/01/28 09:58:10;;;;;;;0.50;0.50;;;0.70;99.90;;;;;;5025667;28;20461;-85
2023/01/28 10:00:39;;;;;;;0.47;0.47;;;0.70;99.90;;;;;;5017045;28;20438;-86
2023/01/28 10:03:49;;;;;;;0.40;0.40;;;0.80;99.90;;;;;;5025555;28;21013;-86
2023/01/28 10:06:26;;;;;;;0.47;0.47;;;0.80;99.90;;;;;;5020520;28;20446;-86
2023/01/28 10:08:58;;;;;;;0.37;0.37;;;0.80;99.90;;;;;;5040916;28;20450;-86
2023/01/28 10:11:47;;;;;;;0.30;0.30;;;0.80;99.90;;;;;;5020307;28;20449;-85
2023/01/28 10:14:30;;;;;;;0.40;0.40;;;0.80;99.90;;;;;;5025941;28;20481;-85
2023/01/28 10:17:17;;;;;;;0.40;0.40;;;0.80;99.90;;;;;;5027664;28;20450;-85
2023/01/28 10:19:55;;;;;;;0.40;0.40;;;0.70;99.90;;;;;;5026570;28;20916;-85
2023/01/28 10:22:22;;;;;;;0.40;0.40;;;0.70;99.90;;;;;;5017475;28;21089;-86
2023/01/28 10:24:57;;;;;;;0.50;0.50;;;0.70;99.90;;;;;;5023455;28;20859;-86
2023/01/28 10:27:27;;;;;;;0.40;0.40;;;0.70;99.90;;;;;;5025457;28;20445;-84
2023/01/28 10:29:54;;;;;;;0.43;0.43;;;0.70;99.90;;;;;;5017647;28;20470;-85
2023/01/28 10:32:29;;;;;;;0.50;0.50;;;0.70;99.90;;;;;;5023927;28;20438;-87
2023/01/28 10:34:58;;;;;;;0.50;0.50;;;0.70;99.90;;;;;;5026536;28;20496;-86
2023/01/28 10:37:24;;;;;;;0.47;0.47;;;0.70;99.90;;;;;;5027816;28;20517;-86
2023/01/28 10:39:53;;;;;;;0.30;0.30;;;0.70;99.90;;;;;;5027745;28;20971;-86
2023/01/28 10:42:24;;;;;;;0.50;0.50;;;0.80;99.90;;;;;;5025567;28;20500;-86
2023/01/28 10:44:50;;;;;;;0.40;0.40;;;0.80;99.90;;;;;;5024924;28;20459;-87
2023/01/28 10:47:27;;;;;;;0.40;0.40;;;0.90;99.90;;;;;;5025675;28;20547;-84
2023/01/28 10:49:55;;;;;;;0.40;0.40;;;0.90;99.90;;;;;;5017390;28;20501;-84
2023/01/28 10:52:21;;;;;;;0.50;0.50;;;1.00;99.90;;;;;;5026640;28;20541;-85
2023/01/28 10:54:46;;;;;;;0.40;0.40;;;0.90;99.90;;;;;;5023285;28;21036;-84
2023/01/28 10:57:17;;;;;;;0.40;0.40;;;1.00;99.90;;;;;;5025574;28;20191;-85
2023/01/28 10:59:43;;;;;;;0.40;0.40;;;1.10;99.90;;;;;;5028235;28;20192;-86
2023/01/28 11:02:24;;;;;;;0.30;0.30;;;1.10;99.90;;;;;;5026286;28;20449;-87
2023/01/28 11:05:06;;;;;;;0.50;0.50;;;1.20;99.90;;;;;;5011496;28;20218;-85
2023/01/28 11:07:32;;;;;;;0.50;0.50;;;1.30;99.90;;;;;;5025502;28;20519;-85
2023/01/28 11:09:57;;;;;;;0.30;0.30;;;1.40;99.90;;;;;;5024378;28;21035;-85
2023/01/28 11:12:28;;;;;;;0.47;0.47;;;1.40;99.90;;;;;;5023626;28;20438;-86
2023/01/28 11:14:56;;;;;;;0.30;0.30;;;1.60;99.90;;;;;;5030209;28;20598;-81
2023/01/28 11:17:24;;;;;;;0.40;0.40;;;1.70;99.90;;;;;;5027369;28;20465;-82
2023/01/28 11:19:52;;;;;;;0.30;0.30;;;1.60;99.90;;;;;;5026124;28;20452;-83
2023/01/28 11:22:37;;;;;;;0.30;0.30;;;1.70;99.90;;;;;;5030693;28;20876;-82
2023/01/28 11:25:27;;;;;;;0.40;0.40;;;1.80;99.90;;;;;;5020825;28;20516;-82
2023/01/28 11:27:54;;;;;;;0.40;0.40;;;1.80;99.90;;;;;;5021852;28;20786;-82
2023/01/28 11:30:28;;;;;;;0.40;0.40;;;1.70;99.90;;;;;;5029038;28;20503;-82
2023/01/28 11:32:56;;;;;;;0.40;0.40;;;1.60;99.90;;;;;;5025898;28;20461;-82
2023/01/28 11:35:29;;;;;;;0.30;0.30;;;1.50;99.90;;;;;;5021086;28;20488;-82
2023/01/28 11:37:59;;;;;;;0.40;0.40;;;1.50;99.90;;;;;;5024384;28;20453;-81
2023/01/28 11:40:24;;;;;;;0.40;0.40;;;1.40;99.90;;;;;;5030513;28;20450;-83
2023/01/28 11:42:51;;;;;;;0.40;0.40;;;1.40;99.90;;;;;;5024016;28;20539;-82
2023/01/28 11:45:38;;;;;;;0.50;0.50;;;1.40;99.90;;;;;;5026610;28;20538;-82
2023/01/28 11:48:36;;;;;;;0.40;0.40;;;1.50;99.90;;;;;;5025814;28;20444;-82
2023/01/28 11:51:31;;;;;;;0.30;0.30;;;1.60;99.90;;;;;;5027992;28;20465;-82
2023/01/28 11:54:22;;;;;;;0.40;0.40;;;1.60;99.90;;;;;;5005500;28;20461;-82
2023/01/28 11:56:58;;;;;;;0.40;0.40;;;1.60;99.90;;;;;;5015759;28;20526;-83
2023/01/28 11:59:48;;;;;;;0.30;0.30;;;1.70;99.90;;;;;;5027094;28;20488;-83
2023/01/28 12:02:52;;;;;;;0.40;0.40;;;1.90;99.90;;;;;;5030536;28;20968;-83
2023/01/28 12:05:47;;;;;;;0.40;0.40;;;2.00;99.90;;;;;;5021791;28;20460;-83
2023/01/28 12:08:21;;;;;;;0.40;0.40;;;2.30;99.90;;;;;;5039968;28;20844;-81
2023/01/28 12:11:19;;;;;;;0.30;0.30;;;2.40;99.90;;;;;;5017984;28;21011;-82
2023/01/28 12:14:05;;;;;;;0.30;0.30;;;2.00;99.90;;;;;;5031002;28;20487;-82
2023/01/28 12:16:46;;;;;;;0.37;0.37;;;1.70;99.90;;;;;;5024474;28;20448;-84
2023/01/28 12:19:39;;;;;;;0.40;0.40;;;1.70;99.90;;;;;;5020657;28;20442;-81
2023/01/28 12:22:17;;;;;;;0.40;0.40;;;1.60;99.90;;;;;;5029842;28;20892;-83
2023/01/28 12:25:02;;;;;;;0.40;0.40;;;1.60;99.90;;;;;;5012930;28;20461;-82
2023/01/28 12:27:37;;;;;;;0.40;0.40;;;1.60;99.90;;;;;;5019494;28;20434;-82
2023/01/28 12:30:38;;;;;;;0.40;0.40;;;1.60;99.90;;;;;;5022785;28;21108;-83
2023/01/28 12:33:39;;;;;;;0.33;0.33;;;1.60;99.90;;;;;;5023800;28;20557;-83
2023/01/28 12:36:28;;;;;;;0.40;0.40;;;1.60;99.90;;;;;;5025549;28;20573;-82
2023/01/28 12:39:28;;;;;;;0.40;0.40;;;1.60;99.90;;;;;;5026893;28;20899;-82
2023/01/28 12:42:18;;;;;;;0.40;0.40;;;1.60;99.90;;;;;;5025098;28;20445;-83
2023/01/28 12:44:51;;;;;;;0.50;0.50;;;1.60;99.90;;;;;;5009939;28;20478;-82
2023/01/28 12:47:38;;;;;;;0.47;0.47;;;1.50;99.90;;;;;;5021500;28;20527;-83
2023/01/28 12:50:19;;;;;;;0.40;0.40;;;1.60;99.90;;;;;;5024407;28;20481;-81
2023/01/28 12:52:51;;;;;;;0.40;0.40;;;1.60;99.90;;;;;;5019488;28;20549;-81
2023/01/28 12:55:38;;;;;;;0.40;0.40;;;1.60;99.90;;;;;;5022109;28;20999;-83
2023/01/28 12:58:11;;;;;;;0.40;0.40;;;1.60;99.90;;;;;;5027519;28;20450;-83
2023/01/28 13:00:40;;;;;;;0.50;0.50;;;1.60;99.90;;;;;;5014949;28;20486;-83
2023/01/28 13:03:32;;;;;;;0.40;0.40;;;1.50;99.90;;;;;;5025498;28;20496;-83
2023/01/28 13:06:06;;;;;;;0.40;0.40;;;1.50;99.90;;;;;;5019530;28;21009;-83
2023/01/28 13:08:31;;;;;;;0.43;0.43;;;1.50;99.90;;;;;;5019941;28;20980;-83
2023/01/28 13:11:00;;;;;;;0.40;0.40;;;1.50;99.90;;;;;;5025351;28;20454;-83
2023/01/28 13:13:33;;;;;;;0.40;0.40;;;1.50;99.90;;;;;;5021500;28;20219;-83
2023/01/28 13:16:00;;;;;;;0.40;0.40;;;1.50;99.90;;;;;;5024846;28;20580;-81
2023/01/28 13:18:38;;;;;;;0.50;0.50;;;1.50;99.90;;;;;;5027688;28;20456;-83
2023/01/28 13:21:04;;;;;;;0.50;0.50;;;1.50;99.90;;;;;;5026536;28;20480;-83
2023/01/28 13:23:30;;;;;;;0.30;0.30;;;1.60;99.90;;;;;;5020532;28;20521;-82
2023/01/28 13:26:17;;;;;;;0.40;0.40;;;1.60;99.90;;;;;;5021900;28;20554;-83
2023/01/28 13:28:48;;;;;;;0.50;0.50;;;1.70;99.90;;;;;;5026456;28;20527;-82
2023/01/28 13:31:19;;;;;;;0.40;0.40;;;1.70;99.90;;;;;;5026344;28;20533;-83
2023/01/28 13:33:48;;;;;;;0.47;0.47;;;1.80;99.90;;;;;;5019072;28;20447;-83
2023/01/28 13:36:36;;;;;;;0.50;0.50;;;1.70;99.90;;;;;;5023384;28;20449;-84
2023/01/28 13:39:13;;;;;;;0.50;0.50;;;1.70;99.90;;;;;;5026184;28;20499;-83